RAIN

Not for real navigation. The accuracy of this data is not assured See disclaimer for more information



ICAO NAME COUNTRY WIND Kt GUST Kt VIS m TEMP/DEW C BARO METAR
EKKA Karup Denmark 1 0 300 12/12 29.68 EKKA 160620Z AUTO 27001KT 0300 R09R/1000N R27L/0900N -SHRA FG BKN014/// BKN052/// 12/12 Q1005 TEMPO
EKYT Aalborg Denmark 1 0 300 12/12 29.68 EKYT 160621Z AUTO 29001KT 0300 R08L/0700N R26R/0550N -RA FG FEW001/// SCT023/// BKN040/// BKN050///
EKAH Tirstrup Denmark 0 0 450 12/12 29.68 EKAH 160620Z AUTO 00000KT 0450NDV R10R/0650N R28L/0800N -RA FG VV001 12/12 Q1005
KATL HARTSFIELD-JACKSON ATLANTA GA United States 6 0 800 18/17 29.90 KATL 160552Z 09006KT 0.5SM R09R/P6000FT -RA BR OVC002 18/17 A2990 RMK AO2 SFC VIS 1 1/2 RAE08B51DZB0
EKVJ Stauning Lufthavn Denmark 0 0 800 11/11 29.71 EKVJ 160620Z 00000KT 0800 FG -RA VV002 11/11 Q1006

Show more